sensor_id;sensor_type;location;lat;lon;timestamp;P1;durP1;ratioP1;P2;durP2;ratioP2
9842;SDS011;4960;48.736;9.108;2023-02-28T00:00:25;0.30;;;0.30;;
9842;SDS011;4960;48.736;9.108;2023-02-28T00:02:54;0.33;;;0.33;;
9842;SDS011;4960;48.736;9.108;2023-02-28T00:05:22;0.40;;;0.40;;
9842;SDS011;4960;48.736;9.108;2023-02-28T00:07:50;0.47;;;0.47;;
9842;SDS011;4960;48.736;9.108;2023-02-28T00:10:18;0.50;;;0.50;;
9842;SDS011;4960;48.736;9.108;2023-02-28T00:12:46;0.40;;;0.40;;
9842;SDS011;4960;48.736;9.108;2023-02-28T00:15:13;0.40;;;0.40;;
9842;SDS011;4960;48.736;9.108;2023-02-28T00:17:40;0.50;;;0.50;;
9842;SDS011;4960;48.736;9.108;2023-02-28T00:20:10;0.40;;;0.40;;
9842;SDS011;4960;48.736;9.108;2023-02-28T00:22:38;0.30;;;0.30;;
9842;SDS011;4960;48.736;9.108;2023-02-28T00:25:05;0.30;;;0.30;;
9842;SDS011;4960;48.736;9.108;2023-02-28T00:27:33;0.40;;;0.40;;
9842;SDS011;4960;48.736;9.108;2023-02-28T00:30:00;0.40;;;0.40;;
9842;SDS011;4960;48.736;9.108;2023-02-28T00:32:27;0.40;;;0.40;;
9842;SDS011;4960;48.736;9.108;2023-02-28T00:34:55;0.40;;;0.40;;
9842;SDS011;4960;48.736;9.108;2023-02-28T00:37:23;0.30;;;0.30;;
9842;SDS011;4960;48.736;9.108;2023-02-28T00:39:50;0.30;;;0.30;;
9842;SDS011;4960;48.736;9.108;2023-02-28T00:42:17;0.30;;;0.30;;
9842;SDS011;4960;48.736;9.108;2023-02-28T00:44:45;0.40;;;0.40;;
9842;SDS011;4960;48.736;9.108;2023-02-28T00:47:12;0.40;;;0.40;;
9842;SDS011;4960;48.736;9.108;2023-02-28T00:49:39;0.40;;;0.40;;
9842;SDS011;4960;48.736;9.108;2023-02-28T00:52:06;0.30;;;0.30;;
9842;SDS011;4960;48.736;9.108;2023-02-28T00:54:35;0.40;;;0.40;;
9842;SDS011;4960;48.736;9.108;2023-02-28T00:57:02;0.33;;;0.33;;
9842;SDS011;4960;48.736;9.108;2023-02-28T00:59:29;0.30;;;0.30;;
9842;SDS011;4960;48.736;9.108;2023-02-28T01:01:56;0.40;;;0.40;;
9842;SDS011;4960;48.736;9.108;2023-02-28T01:04:23;0.30;;;0.30;;
9842;SDS011;4960;48.736;9.108;2023-02-28T01:06:51;0.30;;;0.30;;
9842;SDS011;4960;48.736;9.108;2023-02-28T01:09:18;0.30;;;0.30;;
9842;SDS011;4960;48.736;9.108;2023-02-28T01:11:46;0.40;;;0.40;;
9842;SDS011;4960;48.736;9.108;2023-02-28T01:14:14;0.30;;;0.30;;
9842;SDS011;4960;48.736;9.108;2023-02-28T01:16:42;0.30;;;0.30;;
9842;SDS011;4960;48.736;9.108;2023-02-28T01:19:09;0.30;;;0.30;;
9842;SDS011;4960;48.736;9.108;2023-02-28T01:21:36;0.30;;;0.30;;
9842;SDS011;4960;48.736;9.108;2023-02-28T01:24:04;0.30;;;0.30;;
9842;SDS011;4960;48.736;9.108;2023-02-28T01:26:32;0.40;;;0.40;;
9842;SDS011;4960;48.736;9.108;2023-02-28T01:29:00;0.40;;;0.40;;
9842;SDS011;4960;48.736;9.108;2023-02-28T01:31:27;0.30;;;0.30;;
9842;SDS011;4960;48.736;9.108;2023-02-28T01:33:54;0.40;;;0.40;;
9842;SDS011;4960;48.736;9.108;2023-02-28T01:36:22;0.30;;;0.30;;
9842;SDS011;4960;48.736;9.108;2023-02-28T01:38:49;0.30;;;0.30;;
9842;SDS011;4960;48.736;9.108;2023-02-28T01:41:17;0.40;;;0.40;;
9842;SDS011;4960;48.736;9.108;2023-02-28T01:43:55;0.40;;;0.40;;
9842;SDS011;4960;48.736;9.108;2023-02-28T01:46:25;0.40;;;0.40;;
9842;SDS011;4960;48.736;9.108;2023-02-28T01:48:53;0.40;;;0.40;;
9842;SDS011;4960;48.736;9.108;2023-02-28T01:51:21;0.50;;;0.50;;
9842;SDS011;4960;48.736;9.108;2023-02-28T01:53:51;0.30;;;0.30;;
9842;SDS011;4960;48.736;9.108;2023-02-28T01:56:19;0.40;;;0.40;;
9842;SDS011;4960;48.736;9.108;2023-02-28T01:58:47;0.37;;;0.37;;
9842;SDS011;4960;48.736;9.108;2023-02-28T02:01:14;0.30;;;0.30;;
9842;SDS011;4960;48.736;9.108;2023-02-28T02:03:47;0.30;;;0.30;;
9842;SDS011;4960;48.736;9.108;2023-02-28T02:06:20;0.30;;;0.30;;
9842;SDS011;4960;48.736;9.108;2023-02-28T02:08:47;0.33;;;0.33;;
9842;SDS011;4960;48.736;9.108;2023-02-28T02:11:14;0.30;;;0.30;;
9842;SDS011;4960;48.736;9.108;2023-02-28T02:13:53;0.40;;;0.40;;
9842;SDS011;4960;48.736;9.108;2023-02-28T02:16:29;0.30;;;0.30;;
9842;SDS011;4960;48.736;9.108;2023-02-28T02:19:02;0.40;;;0.40;;
9842;SDS011;4960;48.736;9.108;2023-02-28T02:21:47;0.40;;;0.40;;
9842;SDS011;4960;48.736;9.108;2023-02-28T02:24:29;0.40;;;0.40;;
9842;SDS011;4960;48.736;9.108;2023-02-28T02:27:09;0.40;;;0.40;;
9842;SDS011;4960;48.736;9.108;2023-02-28T02:35:14;0.30;;;0.30;;
9842;SDS011;4960;48.736;9.108;2023-02-28T02:37:46;0.40;;;0.40;;
9842;SDS011;4960;48.736;9.108;2023-02-28T02:40:16;0.40;;;0.40;;
9842;SDS011;4960;48.736;9.108;2023-02-28T02:42:45;0.30;;;0.30;;
9842;SDS011;4960;48.736;9.108;2023-02-28T02:45:16;0.40;;;0.40;;
9842;SDS011;4960;48.736;9.108;2023-02-28T02:47:44;0.40;;;0.40;;
9842;SDS011;4960;48.736;9.108;2023-02-28T02:50:12;0.40;;;0.40;;
9842;SDS011;4960;48.736;9.108;2023-02-28T02:52:42;0.40;;;0.40;;
9842;SDS011;4960;48.736;9.108;2023-02-28T02:55:11;0.40;;;0.40;;
9842;SDS011;4960;48.736;9.108;2023-02-28T02:57:40;0.40;;;0.40;;
9842;SDS011;4960;48.736;9.108;2023-02-28T03:00:10;0.33;;;0.33;;
9842;SDS011;4960;48.736;9.108;2023-02-28T03:02:37;0.30;;;0.30;;
9842;SDS011;4960;48.736;9.108;2023-02-28T03:05:07;0.40;;;0.40;;
9842;SDS011;4960;48.736;9.108;2023-02-28T03:07:35;0.40;;;0.40;;
9842;SDS011;4960;48.736;9.108;2023-02-28T03:12:48;0.40;;;0.40;;
9842;SDS011;4960;48.736;9.108;2023-02-28T03:15:19;0.40;;;0.40;;
9842;SDS011;4960;48.736;9.108;2023-02-28T03:17:55;0.30;;;0.30;;
9842;SDS011;4960;48.736;9.108;2023-02-28T03:20:27;0.30;;;0.30;;
9842;SDS011;4960;48.736;9.108;2023-02-28T03:23:01;0.30;;;0.30;;
9842;SDS011;4960;48.736;9.108;2023-02-28T03:25:33;0.40;;;0.40;;
9842;SDS011;4960;48.736;9.108;2023-02-28T03:28:04;0.30;;;0.30;;
9842;SDS011;4960;48.736;9.108;2023-02-28T03:30:35;0.30;;;0.30;;
9842;SDS011;4960;48.736;9.108;2023-02-28T03:33:03;0.30;;;0.30;;
9842;SDS011;4960;48.736;9.108;2023-02-28T03:35:32;0.37;;;0.37;;
9842;SDS011;4960;48.736;9.108;2023-02-28T03:38:03;0.40;;;0.40;;
9842;SDS011;4960;48.736;9.108;2023-02-28T03:40:33;0.30;;;0.30;;
9842;SDS011;4960;48.736;9.108;2023-02-28T03:43:02;0.40;;;0.40;;
9842;SDS011;4960;48.736;9.108;2023-02-28T03:45:32;0.40;;;0.40;;
9842;SDS011;4960;48.736;9.108;2023-02-28T03:48:01;0.40;;;0.40;;
9842;SDS011;4960;48.736;9.108;2023-02-28T03:50:29;0.37;;;0.37;;
9842;SDS011;4960;48.736;9.108;2023-02-28T03:53:00;0.40;;;0.40;;
9842;SDS011;4960;48.736;9.108;2023-02-28T03:55:30;0.40;;;0.40;;
9842;SDS011;4960;48.736;9.108;2023-02-28T03:58:01;0.50;;;0.50;;
9842;SDS011;4960;48.736;9.108;2023-02-28T04:00:34;0.30;;;0.30;;
9842;SDS011;4960;48.736;9.108;2023-02-28T04:03:02;0.30;;;0.30;;
9842;SDS011;4960;48.736;9.108;2023-02-28T04:05:30;0.50;;;0.50;;
9842;SDS011;4960;48.736;9.108;2023-02-28T04:08:03;0.30;;;0.30;;
9842;SDS011;4960;48.736;9.108;2023-02-28T04:10:30;0.40;;;0.40;;
9842;SDS011;4960;48.736;9.108;2023-02-28T04:12:57;0.40;;;0.40;;
9842;SDS011;4960;48.736;9.108;2023-02-28T04:15:24;0.30;;;0.30;;
9842;SDS011;4960;48.736;9.108;2023-02-28T04:17:53;0.40;;;0.40;;
9842;SDS011;4960;48.736;9.108;2023-02-28T04:20:20;0.40;;;0.40;;
9842;SDS011;4960;48.736;9.108;2023-02-28T04:22:48;0.30;;;0.30;;
9842;SDS011;4960;48.736;9.108;2023-02-28T04:25:15;0.37;;;0.37;;
9842;SDS011;4960;48.736;9.108;2023-02-28T04:27:42;0.30;;;0.30;;
9842;SDS011;4960;48.736;9.108;2023-02-28T04:30:10;0.40;;;0.40;;
9842;SDS011;4960;48.736;9.108;2023-02-28T04:32:37;0.30;;;0.30;;
9842;SDS011;4960;48.736;9.108;2023-02-28T04:35:06;0.30;;;0.30;;
9842;SDS011;4960;48.736;9.108;2023-02-28T04:37:33;0.50;;;0.50;;
9842;SDS011;4960;48.736;9.108;2023-02-28T04:40:02;0.40;;;0.40;;
9842;SDS011;4960;48.736;9.108;2023-02-28T04:42:29;0.30;;;0.30;;
9842;SDS011;4960;48.736;9.108;2023-02-28T04:45:00;0.40;;;0.40;;
9842;SDS011;4960;48.736;9.108;2023-02-28T04:47:27;0.40;;;0.40;;
9842;SDS011;4960;48.736;9.108;2023-02-28T04:49:54;0.50;;;0.50;;
9842;SDS011;4960;48.736;9.108;2023-02-28T04:52:23;0.30;;;0.30;;
9842;SDS011;4960;48.736;9.108;2023-02-28T04:54:50;0.40;;;0.40;;
9842;SDS011;4960;48.736;9.108;2023-02-28T04:57:17;0.40;;;0.40;;
9842;SDS011;4960;48.736;9.108;2023-02-28T04:59:44;0.40;;;0.40;;
9842;SDS011;4960;48.736;9.108;2023-02-28T05:02:12;0.30;;;0.30;;
9842;SDS011;4960;48.736;9.108;2023-02-28T05:04:39;0.30;;;0.30;;
9842;SDS011;4960;48.736;9.108;2023-02-28T05:07:06;0.40;;;0.40;;
9842;SDS011;4960;48.736;9.108;2023-02-28T05:09:34;0.30;;;0.30;;
9842;SDS011;4960;48.736;9.108;2023-02-28T05:12:02;0.30;;;0.30;;
9842;SDS011;4960;48.736;9.108;2023-02-28T05:14:29;0.40;;;0.40;;
9842;SDS011;4960;48.736;9.108;2023-02-28T05:16:56;0.30;;;0.30;;
9842;SDS011;4960;48.736;9.108;2023-02-28T05:19:23;0.40;;;0.40;;
9842;SDS011;4960;48.736;9.108;2023-02-28T05:21:51;0.30;;;0.30;;
9842;SDS011;4960;48.736;9.108;2023-02-28T05:24:18;0.40;;;0.40;;
9842;SDS011;4960;48.736;9.108;2023-02-28T05:26:49;0.30;;;0.30;;
9842;SDS011;4960;48.736;9.108;2023-02-28T05:29:17;0.30;;;0.30;;
9842;SDS011;4960;48.736;9.108;2023-02-28T05:31:45;0.40;;;0.40;;
9842;SDS011;4960;48.736;9.108;2023-02-28T05:34:12;0.40;;;0.40;;
9842;SDS011;4960;48.736;9.108;2023-02-28T05:36:40;0.33;;;0.33;;
9842;SDS011;4960;48.736;9.108;2023-02-28T05:39:07;0.30;;;0.30;;
9842;SDS011;4960;48.736;9.108;2023-02-28T05:41:38;0.40;;;0.40;;
9842;SDS011;4960;48.736;9.108;2023-02-28T05:44:06;0.30;;;0.30;;
9842;SDS011;4960;48.736;9.108;2023-02-28T05:46:33;0.30;;;0.30;;
9842;SDS011;4960;48.736;9.108;2023-02-28T05:49:00;0.30;;;0.30;;
9842;SDS011;4960;48.736;9.108;2023-02-28T05:51:27;0.30;;;0.30;;
9842;SDS011;4960;48.736;9.108;2023-02-28T05:53:58;0.30;;;0.30;;
9842;SDS011;4960;48.736;9.108;2023-02-28T05:56:25;0.40;;;0.40;;
9842;SDS011;4960;48.736;9.108;2023-02-28T05:58:52;0.40;;;0.40;;
9842;SDS011;4960;48.736;9.108;2023-02-28T06:01:22;0.30;;;0.30;;
9842;SDS011;4960;48.736;9.108;2023-02-28T06:03:49;0.40;;;0.40;;
9842;SDS011;4960;48.736;9.108;2023-02-28T06:06:16;0.37;;;0.37;;
9842;SDS011;4960;48.736;9.108;2023-02-28T06:08:44;0.30;;;0.30;;
9842;SDS011;4960;48.736;9.108;2023-02-28T06:11:11;0.30;;;0.30;;
9842;SDS011;4960;48.736;9.108;2023-02-28T06:13:38;0.40;;;0.40;;
9842;SDS011;4960;48.736;9.108;2023-02-28T06:16:05;0.40;;;0.40;;
9842;SDS011;4960;48.736;9.108;2023-02-28T06:18:34;0.50;;;0.50;;
9842;SDS011;4960;48.736;9.108;2023-02-28T06:21:01;0.40;;;0.40;;
9842;SDS011;4960;48.736;9.108;2023-02-28T06:23:28;0.30;;;0.30;;
9842;SDS011;4960;48.736;9.108;2023-02-28T06:25:56;0.40;;;0.40;;
9842;SDS011;4960;48.736;9.108;2023-02-28T06:28:24;0.30;;;0.30;;
9842;SDS011;4960;48.736;9.108;2023-02-28T06:30:51;0.40;;;0.40;;
9842;SDS011;4960;48.736;9.108;2023-02-28T06:33:18;0.40;;;0.40;;
9842;SDS011;4960;48.736;9.108;2023-02-28T06:35:47;0.33;;;0.33;;
9842;SDS011;4960;48.736;9.108;2023-02-28T06:38:16;0.30;;;0.30;;
9842;SDS011;4960;48.736;9.108;2023-02-28T06:40:44;0.40;;;0.40;;
9842;SDS011;4960;48.736;9.108;2023-02-28T06:43:11;0.37;;;0.37;;
9842;SDS011;4960;48.736;9.108;2023-02-28T06:45:41;0.40;;;0.40;;
9842;SDS011;4960;48.736;9.108;2023-02-28T06:48:08;0.40;;;0.40;;
9842;SDS011;4960;48.736;9.108;2023-02-28T06:50:35;0.30;;;0.30;;
9842;SDS011;4960;48.736;9.108;2023-02-28T06:53:04;0.30;;;0.30;;
9842;SDS011;4960;48.736;9.108;2023-02-28T06:55:31;0.33;;;0.33;;
9842;SDS011;4960;48.736;9.108;2023-02-28T06:57:59;0.30;;;0.30;;
9842;SDS011;4960;48.736;9.108;2023-02-28T07:00:26;0.30;;;0.30;;
9842;SDS011;4960;48.736;9.108;2023-02-28T07:02:53;0.30;;;0.30;;
9842;SDS011;4960;48.736;9.108;2023-02-28T07:05:20;0.37;;;0.37;;
9842;SDS011;4960;48.736;9.108;2023-02-28T07:07:47;0.40;;;0.40;;
9842;SDS011;4960;48.736;9.108;2023-02-28T07:10:17;0.30;;;0.30;;
9842;SDS011;4960;48.736;9.108;2023-02-28T07:12:44;0.30;;;0.30;;
9842;SDS011;4960;48.736;9.108;2023-02-28T07:15:11;0.30;;;0.30;;
9842;SDS011;4960;48.736;9.108;2023-02-28T07:17:38;0.30;;;0.30;;
9842;SDS011;4960;48.736;9.108;2023-02-28T07:20:06;0.30;;;0.30;;
9842;SDS011;4960;48.736;9.108;2023-02-28T07:22:33;0.40;;;0.40;;
9842;SDS011;4960;48.736;9.108;2023-02-28T07:25:00;0.30;;;0.30;;
9842;SDS011;4960;48.736;9.108;2023-02-28T07:27:29;0.40;;;0.40;;
9842;SDS011;4960;48.736;9.108;2023-02-28T07:29:56;0.40;;;0.40;;
9842;SDS011;4960;48.736;9.108;2023-02-28T07:32:26;0.50;;;0.50;;
9842;SDS011;4960;48.736;9.108;2023-02-28T07:34:53;0.30;;;0.30;;
9842;SDS011;4960;48.736;9.108;2023-02-28T07:37:20;0.40;;;0.40;;
9842;SDS011;4960;48.736;9.108;2023-02-28T07:39:48;0.30;;;0.30;;
9842;SDS011;4960;48.736;9.108;2023-02-28T07:42:16;0.40;;;0.40;;
9842;SDS011;4960;48.736;9.108;2023-02-28T07:44:44;0.50;;;0.50;;
9842;SDS011;4960;48.736;9.108;2023-02-28T07:47:11;0.40;;;0.40;;
9842;SDS011;4960;48.736;9.108;2023-02-28T07:49:39;0.30;;;0.30;;
9842;SDS011;4960;48.736;9.108;2023-02-28T07:52:06;0.40;;;0.40;;
9842;SDS011;4960;48.736;9.108;2023-02-28T07:54:33;0.30;;;0.30;;
9842;SDS011;4960;48.736;9.108;2023-02-28T07:57:00;0.30;;;0.30;;
9842;SDS011;4960;48.736;9.108;2023-02-28T07:59:28;0.30;;;0.30;;
9842;SDS011;4960;48.736;9.108;2023-02-28T08:01:58;0.40;;;0.40;;
9842;SDS011;4960;48.736;9.108;2023-02-28T08:04:25;0.40;;;0.40;;
9842;SDS011;4960;48.736;9.108;2023-02-28T08:06:52;0.30;;;0.30;;
9842;SDS011;4960;48.736;9.108;2023-02-28T08:09:21;0.30;;;0.30;;
9842;SDS011;4960;48.736;9.108;2023-02-28T08:11:48;0.33;;;0.33;;
9842;SDS011;4960;48.736;9.108;2023-02-28T08:14:15;0.33;;;0.33;;
9842;SDS011;4960;48.736;9.108;2023-02-28T08:16:42;0.40;;;0.40;;
9842;SDS011;4960;48.736;9.108;2023-02-28T08:19:11;0.40;;;0.40;;
9842;SDS011;4960;48.736;9.108;2023-02-28T08:21:38;0.30;;;0.30;;
9842;SDS011;4960;48.736;9.108;2023-02-28T08:24:06;0.40;;;0.40;;
9842;SDS011;4960;48.736;9.108;2023-02-28T08:26:33;0.30;;;0.30;;
9842;SDS011;4960;48.736;9.108;2023-02-28T08:29:00;0.27;;;0.27;;
9842;SDS011;4960;48.736;9.108;2023-02-28T08:31:27;0.23;;;0.23;;
9842;SDS011;4960;48.736;9.108;2023-02-28T08:33:54;0.37;;;0.37;;
9842;SDS011;4960;48.736;9.108;2023-02-28T08:36:25;0.30;;;0.30;;
9842;SDS011;4960;48.736;9.108;2023-02-28T08:38:53;0.40;;;0.40;;
9842;SDS011;4960;48.736;9.108;2023-02-28T08:41:20;0.40;;;0.40;;
9842;SDS011;4960;48.736;9.108;2023-02-28T08:43:47;0.40;;;0.40;;
9842;SDS011;4960;48.736;9.108;2023-02-28T08:46:14;0.40;;;0.40;;
9842;SDS011;4960;48.736;9.108;2023-02-28T08:48:42;0.40;;;0.40;;
9842;SDS011;4960;48.736;9.108;2023-02-28T08:51:10;0.37;;;0.37;;
9842;SDS011;4960;48.736;9.108;2023-02-28T08:53:39;0.37;;;0.37;;
9842;SDS011;4960;48.736;9.108;2023-02-28T08:56:07;0.37;;;0.37;;
9842;SDS011;4960;48.736;9.108;2023-02-28T08:58:35;0.37;;;0.37;;
9842;SDS011;4960;48.736;9.108;2023-02-28T09:01:07;0.40;;;0.40;;
9842;SDS011;4960;48.736;9.108;2023-02-28T09:03:34;0.40;;;0.40;;
9842;SDS011;4960;48.736;9.108;2023-02-28T09:06:01;0.33;;;0.33;;
9842;SDS011;4960;48.736;9.108;2023-02-28T09:08:29;0.40;;;0.40;;
9842;SDS011;4960;48.736;9.108;2023-02-28T09:10:58;0.30;;;0.30;;
9842;SDS011;4960;48.736;9.108;2023-02-28T09:13:26;0.40;;;0.40;;
9842;SDS011;4960;48.736;9.108;2023-02-28T09:15:54;0.30;;;0.30;;
9842;SDS011;4960;48.736;9.108;2023-02-28T09:18:24;0.30;;;0.30;;
9842;SDS011;4960;48.736;9.108;2023-02-28T09:20:51;0.30;;;0.30;;
9842;SDS011;4960;48.736;9.108;2023-02-28T09:23:18;0.20;;;0.20;;
9842;SDS011;4960;48.736;9.108;2023-02-28T09:25:46;0.40;;;0.40;;
9842;SDS011;4960;48.736;9.108;2023-02-28T09:28:15;0.30;;;0.30;;
9842;SDS011;4960;48.736;9.108;2023-02-28T09:30:43;0.30;;;0.30;;
9842;SDS011;4960;48.736;9.108;2023-02-28T09:33:11;0.30;;;0.30;;
9842;SDS011;4960;48.736;9.108;2023-02-28T09:35:38;0.30;;;0.30;;
9842;SDS011;4960;48.736;9.108;2023-02-28T09:38:05;0.30;;;0.30;;
9842;SDS011;4960;48.736;9.108;2023-02-28T09:40:35;0.30;;;0.30;;
9842;SDS011;4960;48.736;9.108;2023-02-28T09:43:02;0.30;;;0.30;;
9842;SDS011;4960;48.736;9.108;2023-02-28T09:45:32;0.30;;;0.30;;
9842;SDS011;4960;48.736;9.108;2023-02-28T09:48:01;0.30;;;0.30;;
9842;SDS011;4960;48.736;9.108;2023-02-28T09:50:31;0.40;;;0.40;;
9842;SDS011;4960;48.736;9.108;2023-02-28T09:52:59;0.40;;;0.40;;
9842;SDS011;4960;48.736;9.108;2023-02-28T09:55:30;0.40;;;0.40;;
9842;SDS011;4960;48.736;9.108;2023-02-28T09:57:59;0.20;;;0.20;;
9842;SDS011;4960;48.736;9.108;2023-02-28T10:00:28;0.20;;;0.20;;
9842;SDS011;4960;48.736;9.108;2023-02-28T10:03:11;0.30;;;0.30;;
9842;SDS011;4960;48.736;9.108;2023-02-28T10:05:43;0.30;;;0.30;;
9842;SDS011;4960;48.736;9.108;2023-02-28T10:08:15;0.30;;;0.30;;
9842;SDS011;4960;48.736;9.108;2023-02-28T10:10:44;0.30;;;0.30;;
9842;SDS011;4960;48.736;9.108;2023-02-28T10:13:16;0.30;;;0.30;;
9842;SDS011;4960;48.736;9.108;2023-02-28T10:15:46;0.37;;;0.37;;
9842;SDS011;4960;48.736;9.108;2023-02-28T10:18:17;0.20;;;0.20;;
9842;SDS011;4960;48.736;9.108;2023-02-28T10:20:45;0.30;;;0.30;;
9842;SDS011;4960;48.736;9.108;2023-02-28T10:23:15;0.30;;;0.30;;
9842;SDS011;4960;48.736;9.108;2023-02-28T10:25:45;0.30;;;0.30;;
9842;SDS011;4960;48.736;9.108;2023-02-28T10:28:14;0.30;;;0.30;;
9842;SDS011;4960;48.736;9.108;2023-02-28T10:30:43;0.30;;;0.30;;
9842;SDS011;4960;48.736;9.108;2023-02-28T10:33:16;0.20;;;0.20;;
9842;SDS011;4960;48.736;9.108;2023-02-28T10:35:45;0.23;;;0.23;;
9842;SDS011;4960;48.736;9.108;2023-02-28T10:38:15;0.37;;;0.37;;
9842;SDS011;4960;48.736;9.108;2023-02-28T10:40:42;0.23;;;0.23;;
9842;SDS011;4960;48.736;9.108;2023-02-28T10:43:17;0.30;;;0.30;;
9842;SDS011;4960;48.736;9.108;2023-02-28T10:45:52;0.20;;;0.20;;
9842;SDS011;4960;48.736;9.108;2023-02-28T10:48:29;0.20;;;0.20;;
9842;SDS011;4960;48.736;9.108;2023-02-28T10:50:56;0.20;;;0.20;;
9842;SDS011;4960;48.736;9.108;2023-02-28T10:53:28;0.23;;;0.23;;
9842;SDS011;4960;48.736;9.108;2023-02-28T10:55:57;0.20;;;0.20;;
9842;SDS011;4960;48.736;9.108;2023-02-28T10:58:26;0.20;;;0.20;;
9842;SDS011;4960;48.736;9.108;2023-02-28T11:00:54;0.30;;;0.30;;
9842;SDS011;4960;48.736;9.108;2023-02-28T11:03:28;0.30;;;0.30;;
9842;SDS011;4960;48.736;9.108;2023-02-28T11:05:57;0.20;;;0.20;;
9842;SDS011;4960;48.736;9.108;2023-02-28T11:08:24;0.20;;;0.20;;
9842;SDS011;4960;48.736;9.108;2023-02-28T11:10:55;0.30;;;0.30;;
9842;SDS011;4960;48.736;9.108;2023-02-28T11:13:25;0.20;;;0.20;;
9842;SDS011;4960;48.736;9.108;2023-02-28T11:15:53;0.20;;;0.20;;
9842;SDS011;4960;48.736;9.108;2023-02-28T11:18:23;0.20;;;0.20;;
9842;SDS011;4960;48.736;9.108;2023-02-28T11:20:51;0.20;;;0.20;;
9842;SDS011;4960;48.736;9.108;2023-02-28T11:23:21;0.20;;;0.20;;
9842;SDS011;4960;48.736;9.108;2023-02-28T11:25:52;0.20;;;0.20;;
9842;SDS011;4960;48.736;9.108;2023-02-28T11:28:26;0.20;;;0.20;;
9842;SDS011;4960;48.736;9.108;2023-02-28T11:31:00;0.20;;;0.20;;
9842;SDS011;4960;48.736;9.108;2023-02-28T11:33:28;0.20;;;0.20;;
9842;SDS011;4960;48.736;9.108;2023-02-28T11:35:57;0.20;;;0.20;;
9842;SDS011;4960;48.736;9.108;2023-02-28T11:38:27;0.20;;;0.20;;
9842;SDS011;4960;48.736;9.108;2023-02-28T11:41:02;0.20;;;0.20;;
9842;SDS011;4960;48.736;9.108;2023-02-28T11:43:35;0.20;;;0.20;;
9842;SDS011;4960;48.736;9.108;2023-02-28T11:46:06;0.20;;;0.20;;
9842;SDS011;4960;48.736;9.108;2023-02-28T11:48:39;0.10;;;0.10;;
9842;SDS011;4960;48.736;9.108;2023-02-28T11:51:12;0.20;;;0.20;;
9842;SDS011;4960;48.736;9.108;2023-02-28T11:53:47;0.20;;;0.20;;
9842;SDS011;4960;48.736;9.108;2023-02-28T11:56:17;0.20;;;0.20;;
9842;SDS011;4960;48.736;9.108;2023-02-28T11:58:49;0.20;;;0.20;;
9842;SDS011;4960;48.736;9.108;2023-02-28T12:01:20;0.20;;;0.20;;
9842;SDS011;4960;48.736;9.108;2023-02-28T12:03:52;0.20;;;0.20;;
9842;SDS011;4960;48.736;9.108;2023-02-28T12:06:22;0.20;;;0.20;;
9842;SDS011;4960;48.736;9.108;2023-02-28T12:11:44;0.13;;;0.13;;
9842;SDS011;4960;48.736;9.108;2023-02-28T12:14:19;0.20;;;0.20;;
9842;SDS011;4960;48.736;9.108;2023-02-28T12:16:53;0.10;;;0.10;;
9842;SDS011;4960;48.736;9.108;2023-02-28T12:19:25;0.13;;;0.13;;
9842;SDS011;4960;48.736;9.108;2023-02-28T12:22:05;0.20;;;0.20;;
9842;SDS011;4960;48.736;9.108;2023-02-28T12:24:39;0.20;;;0.20;;
9842;SDS011;4960;48.736;9.108;2023-02-28T12:27:12;0.20;;;0.20;;
9842;SDS011;4960;48.736;9.108;2023-02-28T12:29:42;0.10;;;0.10;;
9842;SDS011;4960;48.736;9.108;2023-02-28T12:32:11;0.20;;;0.20;;
9842;SDS011;4960;48.736;9.108;2023-02-28T12:34:44;0.20;;;0.20;;
9842;SDS011;4960;48.736;9.108;2023-02-28T12:37:14;0.20;;;0.20;;
9842;SDS011;4960;48.736;9.108;2023-02-28T12:39:43;0.10;;;0.10;;
9842;SDS011;4960;48.736;9.108;2023-02-28T12:42:13;0.20;;;0.20;;
9842;SDS011;4960;48.736;9.108;2023-02-28T12:44:40;0.10;;;0.10;;
9842;SDS011;4960;48.736;9.108;2023-02-28T12:47:11;0.20;;;0.20;;
9842;SDS011;4960;48.736;9.108;2023-02-28T12:49:41;0.20;;;0.20;;
9842;SDS011;4960;48.736;9.108;2023-02-28T12:52:09;0.20;;;0.20;;
9842;SDS011;4960;48.736;9.108;2023-02-28T12:54:40;0.20;;;0.20;;
9842;SDS011;4960;48.736;9.108;2023-02-28T12:57:13;0.20;;;0.20;;
9842;SDS011;4960;48.736;9.108;2023-02-28T12:59:42;0.20;;;0.20;;
9842;SDS011;4960;48.736;9.108;2023-02-28T13:02:24;0.20;;;0.20;;
9842;SDS011;4960;48.736;9.108;2023-02-28T13:04:58;0.20;;;0.20;;
9842;SDS011;4960;48.736;9.108;2023-02-28T13:07:33;0.20;;;0.20;;
9842;SDS011;4960;48.736;9.108;2023-02-28T13:10:04;0.20;;;0.20;;
9842;SDS011;4960;48.736;9.108;2023-02-28T13:12:34;0.20;;;0.20;;
9842;SDS011;4960;48.736;9.108;2023-02-28T13:15:03;0.20;;;0.20;;
9842;SDS011;4960;48.736;9.108;2023-02-28T13:17:31;0.20;;;0.20;;
9842;SDS011;4960;48.736;9.108;2023-02-28T13:19:59;0.20;;;0.20;;
9842;SDS011;4960;48.736;9.108;2023-02-28T13:22:37;0.20;;;0.20;;
9842;SDS011;4960;48.736;9.108;2023-02-28T13:25:17;0.20;;;0.20;;
9842;SDS011;4960;48.736;9.108;2023-02-28T13:28:09;0.20;;;0.20;;
9842;SDS011;4960;48.736;9.108;2023-02-28T13:33:25;0.20;;;0.20;;
9842;SDS011;4960;48.736;9.108;2023-02-28T13:36:22;0.23;;;0.23;;
9842;SDS011;4960;48.736;9.108;2023-02-28T13:38:50;0.20;;;0.20;;
9842;SDS011;4960;48.736;9.108;2023-02-28T13:44:02;0.17;;;0.17;;
9842;SDS011;4960;48.736;9.108;2023-02-28T13:46:30;0.20;;;0.20;;
9842;SDS011;4960;48.736;9.108;2023-02-28T13:49:14;0.10;;;0.10;;
9842;SDS011;4960;48.736;9.108;2023-02-28T13:51:44;0.10;;;0.10;;
9842;SDS011;4960;48.736;9.108;2023-02-28T13:54:24;0.10;;;0.10;;
9842;SDS011;4960;48.736;9.108;2023-02-28T13:56:57;0.10;;;0.10;;
9842;SDS011;4960;48.736;9.108;2023-02-28T13:59:31;0.10;;;0.10;;
9842;SDS011;4960;48.736;9.108;2023-02-28T14:02:03;0.10;;;0.10;;
9842;SDS011;4960;48.736;9.108;2023-02-28T14:04:49;0.10;;;0.10;;
9842;SDS011;4960;48.736;9.108;2023-02-28T14:07:18;0.10;;;0.10;;
9842;SDS011;4960;48.736;9.108;2023-02-28T14:09:46;0.10;;;0.10;;
9842;SDS011;4960;48.736;9.108;2023-02-28T14:15:17;0.10;;;0.10;;
9842;SDS011;4960;48.736;9.108;2023-02-28T14:17:52;0.10;;;0.10;;
9842;SDS011;4960;48.736;9.108;2023-02-28T14:20:20;0.10;;;0.10;;
9842;SDS011;4960;48.736;9.108;2023-02-28T14:22:51;0.20;;;0.20;;
9842;SDS011;4960;48.736;9.108;2023-02-28T14:25:22;0.17;;;0.17;;
9842;SDS011;4960;48.736;9.108;2023-02-28T14:27:54;0.10;;;0.10;;
9842;SDS011;4960;48.736;9.108;2023-02-28T14:30:29;0.10;;;0.10;;
9842;SDS011;4960;48.736;9.108;2023-02-28T14:33:08;0.10;;;0.10;;
9842;SDS011;4960;48.736;9.108;2023-02-28T14:35:50;0.10;;;0.10;;
9842;SDS011;4960;48.736;9.108;2023-02-28T14:38:22;0.20;;;0.20;;
9842;SDS011;4960;48.736;9.108;2023-02-28T14:40:51;0.10;;;0.10;;
9842;SDS011;4960;48.736;9.108;2023-02-28T14:43:20;0.20;;;0.20;;
9842;SDS011;4960;48.736;9.108;2023-02-28T14:45:49;0.10;;;0.10;;
9842;SDS011;4960;48.736;9.108;2023-02-28T14:48:18;0.20;;;0.20;;
9842;SDS011;4960;48.736;9.108;2023-02-28T14:50:48;0.20;;;0.20;;
9842;SDS011;4960;48.736;9.108;2023-02-28T14:53:17;0.20;;;0.20;;
9842;SDS011;4960;48.736;9.108;2023-02-28T14:55:45;0.20;;;0.20;;
9842;SDS011;4960;48.736;9.108;2023-02-28T14:58:17;0.20;;;0.20;;
9842;SDS011;4960;48.736;9.108;2023-02-28T15:00:48;0.20;;;0.20;;
9842;SDS011;4960;48.736;9.108;2023-02-28T15:03:18;0.20;;;0.20;;
9842;SDS011;4960;48.736;9.108;2023-02-28T15:05:52;0.20;;;0.20;;
9842;SDS011;4960;48.736;9.108;2023-02-28T15:08:19;0.20;;;0.20;;
9842;SDS011;4960;48.736;9.108;2023-02-28T15:10:50;0.20;;;0.20;;
9842;SDS011;4960;48.736;9.108;2023-02-28T15:13:18;0.20;;;0.20;;
9842;SDS011;4960;48.736;9.108;2023-02-28T15:15:48;0.20;;;0.20;;
9842;SDS011;4960;48.736;9.108;2023-02-28T15:18:20;0.20;;;0.20;;
9842;SDS011;4960;48.736;9.108;2023-02-28T15:20:49;0.20;;;0.20;;
9842;SDS011;4960;48.736;9.108;2023-02-28T15:23:18;0.20;;;0.20;;
9842;SDS011;4960;48.736;9.108;2023-02-28T15:25:46;0.20;;;0.20;;
9842;SDS011;4960;48.736;9.108;2023-02-28T15:28:14;0.20;;;0.20;;
9842;SDS011;4960;48.736;9.108;2023-02-28T15:30:50;0.10;;;0.10;;
9842;SDS011;4960;48.736;9.108;2023-02-28T15:33:19;0.20;;;0.20;;
9842;SDS011;4960;48.736;9.108;2023-02-28T15:35:46;0.10;;;0.10;;
9842;SDS011;4960;48.736;9.108;2023-02-28T15:38:15;0.20;;;0.20;;
9842;SDS011;4960;48.736;9.108;2023-02-28T15:40:45;0.30;;;0.30;;
9842;SDS011;4960;48.736;9.108;2023-02-28T15:43:18;0.20;;;0.20;;
9842;SDS011;4960;48.736;9.108;2023-02-28T15:45:49;0.13;;;0.13;;
9842;SDS011;4960;48.736;9.108;2023-02-28T15:48:18;0.20;;;0.20;;